• Join FlightAware (Why Join?)
  • Login
  • US Flag 
01:34AM EDT


 

Airport Tracker/Info


-or-


 

Live Flight TrackerFlight Track Log ✈ AWE3390 ✈ 08-May-2013 ✈ KRSW - KDCA

Flight Track Log - Related Links

Times and Time Zones

All times are in EDT time to prevent confusion due to time zone crossing. See the AWE3390 flight status page for this flight to view local times or setup timezone preferences in your user account.

Time Position Orientation Groundspeed Altitude Reporting Facility
EDT Latitude Longitude Course Direction KTS MPH feet Rate Location/Type
01:00PM 26.8871 -81.7333 North  Level FlightAware Approximate
01:00PM 26.5592 -81.9053 342° North 279 321 5,900  Level Miami Center
01:01PM 27.0054 -81.7333 North  Level FlightAware Approximate
01:01PM 26.6336 -81.9203 350° North 274 315 8,400  Level Miami Center
01:02PM 27.1182 -81.7712 347° North  Level FlightAware Approximate
01:02PM 26.7156 -81.9097 North 275 316 10,600  Level Miami Center
01:03PM 27.2325 -81.8053 343° North  Level FlightAware Approximate
01:03PM 26.8019 -81.8808 17° North 294 338 12,400  Level Miami Center
01:04PM 27.3430 -81.8500 North  Level FlightAware Approximate
01:04PM 26.8875 -81.8264 30° Northeast 319 367 14,300  Level Miami Center
01:05PM 27.4551 -81.8879 339° North  Level FlightAware Approximate
01:05PM 26.9747 -81.7742 28° Northeast 338 389 16,200  Level Miami Center
01:06PM 27.5689 -81.9235 342° North  Level FlightAware Approximate
01:06PM 27.0817 -81.7647 North 337 388 18,100  Level Miami Center
01:07PM 27.1747 -81.7919 345° North 337 388 19,600 1,380 Climbing Miami Center
01:08PM 27.2717 -81.8242 344° North 348 400 20,900 1,260 Climbing Miami Center
01:09PM 27.3622 -81.8561 343° North 362 417 22,200 1,260 Climbing Miami Center
01:10PM 27.4633 -81.8933 342° North 373 429 23,500 1,260 Climbing Miami Center
01:11PM 27.5817 -81.9125 352° North 386 444 24,800 1,200 Climbing Miami Center
01:12PM 27.6878 -81.8586 24° Northeast 386 444 25,900 1,140 Climbing Miami Center
01:13PM 27.7922 -81.7950 28° Northeast 409 471 27,100 1,020 Climbing Miami Center
01:14PM 27.8986 -81.7317 28° Northeast 419 482 28,000 900 Climbing Miami Center
01:15PM 28.0131 -81.6847 20° North 432 497 29,000 900 Climbing Miami Center
01:16PM 28.1322 -81.6758 North 421 484 29,900 900 Climbing Miami Center
01:17PM 28.2575 -81.6694 North 427 491 30,900 1,020 Climbing Miami Center
01:18PM 28.3789 -81.6606 North 436 502 32,000 1,020 Climbing Miami Center
01:19PM 28.4300 -81.6581 North 442 509 32,500 660 Climbing Jacksonville Center
01:20PM 28.5528 -81.6447 North 442 509 33,000 240 Climbing Jacksonville Center
01:21PM 28.6758 -81.6361 North 437 503 33,000  Level Jacksonville Center
01:22PM 28.7989 -81.6275 North 437 503 33,000  Level Jacksonville Center
01:23PM 28.9219 -81.6186 North 437 503 33,000  Level Jacksonville Center
01:24PM 29.0575 -81.6097 North 437 503 33,000  Level Jacksonville Center
01:25PM 29.1786 -81.5986 North 437 503 33,000  Level Jacksonville Center
01:26PM 29.2892 -81.5925 North 437 503 33,000  Level Jacksonville Center
01:27PM 29.4122 -81.5814 North 443 510 33,000  Level Jacksonville Center
01:28PM 29.5353 -81.5725 North 443 510 33,000  Level Jacksonville Center
01:29PM 29.6561 -81.5639 North 443 510 33,000  Level Jacksonville Center
01:30PM 29.7814 -81.5550 North 443 510 33,000  Level Jacksonville Center
01:31PM 29.9044 -81.5436 North 443 510 33,000  Level Jacksonville Center
01:32PM 30.0297 -81.5347 North 443 510 33,000  Level Jacksonville Center
01:33PM 30.1506 -81.5233 North 443 510 33,000  Level Jacksonville Center
01:34PM 30.2883 -81.5142 North 443 510 33,000  Level Jacksonville Center
01:35PM 30.4197 -81.5025 North 449 517 33,000  Level Jacksonville Center
01:36PM 30.5469 -81.4936 North 454 522 33,000  Level Jacksonville Center
01:37PM 30.6764 -81.4844 North 459 528 33,000  Level Jacksonville Center
01:38PM 30.8036 -81.4753 North 459 528 33,000  Level Jacksonville Center
01:39PM 30.9328 -81.4636 North 459 528 33,000  Level Jacksonville Center
01:40PM 31.0600 -81.4519 North 459 528 33,000  Level Jacksonville Center
01:41PM 31.1853 -81.4428 North 459 528 33,000  Level Jacksonville Center
01:42PM 31.3186 -81.4214 North 466 536 33,000  Level Jacksonville Center
01:43PM 31.4436 -81.3828 15° North 466 536 33,000  Level Jacksonville Center
01:44PM 31.5600 -81.3542 12° North 472 543 33,000  Level Jacksonville Center
01:45PM 31.6975 -81.3175 13° North 466 536 33,000  Level Jacksonville Center
01:46PM 31.8244 -81.2836 13° North 466 536 33,000  Level Jacksonville Center
01:47PM 31.9389 -81.2572 11° North 461 531 33,000  Level Jacksonville Center
01:48PM 32.0531 -81.2111 19° North 448 516 33,000  Level Jacksonville Center
01:49PM 32.1542 -81.1283 35° Northeast 432 497 33,000  Level Jacksonville Center
01:50PM 32.2678 -81.0328 35° Northeast 445 512 33,000  Level Jacksonville Center
01:51PM 32.3667 -80.9494 35° Northeast 439 505 33,000  Level Jacksonville Center
01:52PM 32.4553 -80.8689 37° Northeast 439 505 33,000  Level Jacksonville Center
01:53PM 32.5561 -80.7828 36° Northeast 439 505 33,000  Level Jacksonville Center
01:54PM 32.6547 -80.6967 36° Northeast 444 511 33,000  Level Jacksonville Center
01:55PM 32.7533 -80.6078 37° Northeast 444 511 33,000  Level Jacksonville Center
01:56PM 32.8561 -80.5211 35° Northeast 444 511 33,000  Level Jacksonville Center
01:57PM 32.9567 -80.4342 36° Northeast 444 511 33,000  Level Jacksonville Center
01:58PM 33.0592 -80.3397 38° Northeast 449 517 33,000  Level Jacksonville Center
01:59PM 33.1619 -80.2525 35° Northeast 449 517 33,000  Level Jacksonville Center
02:00PM 33.2747 -80.1572 35° Northeast 449 517 33,000  Level Jacksonville Center
02:01PM 33.3728 -80.0672 37° Northeast 444 511 33,000  Level Jacksonville Center
02:02PM 33.4731 -79.9792 36° Northeast 444 511 33,000  Level Jacksonville Center
02:03PM 33.5753 -79.8861 37° Northeast 444 511 33,000  Level Jacksonville Center
02:04PM 33.6753 -79.7953 37° Northeast 444 511 33,000  Level Jacksonville Center
02:05PM 33.7753 -79.7069 36° Northeast 444 511 33,000  Level Jacksonville Center
02:06PM 33.8753 -79.6158 37° Northeast 444 511 33,000  Level Jacksonville Center
02:07PM 33.9772 -79.5269 36° Northeast 444 511 33,000  Level Jacksonville Center
02:09PM 34.1411 -79.3756 37° Northeast 440 506 33,000  Level Washington Center
02:10PM 34.2592 -79.2731 36° Northeast 457 526 33,000  Level Washington Center
02:11PM 34.3697 -79.2025 28° Northeast 457 526 33,000  Level Washington Center
02:12PM 34.4822 -79.1394 25° Northeast 451 519 33,000  Level Washington Center
02:13PM 34.5925 -79.0761 25° Northeast 441 507 33,000  Level Washington Center
02:14PM 34.7072 -79.0103 25° Northeast 441 507 33,000  Level Washington Center
02:15PM 34.8175 -78.9442 26° Northeast 441 507 33,000  Level Washington Center
02:16PM 34.9300 -78.8803 25° Northeast 434 499 33,000  Level Washington Center
02:17PM 35.0381 -78.8136 27° Northeast 434 499 33,000  Level Washington Center
02:18PM 35.1506 -78.7494 25° Northeast 429 494 33,000  Level Washington Center
02:19PM 35.2606 -78.6853 25° Northeast 429 494 33,000  Level Washington Center
02:20PM 35.3731 -78.6183 26° Northeast 436 502 33,000 -600 Level Washington Center
02:21PM 35.4703 -78.5631 25° Northeast 429 494 31,800 -1,800 Descending Washington Center
02:22PM 35.5911 -78.4886 27° Northeast 429 494 29,500 -1,440 Descending Washington Center
02:23PM 35.6886 -78.4206 30° Northeast 429 494 29,000 -540 Descending Washington Center
02:24PM 35.7789 -78.3111 45° Northeast 434 499 28,500 -840 Descending Washington Center
02:25PM 35.8847 -78.2403 28° Northeast 440 506 27,400 -780 Descending Washington Center
02:26PM 35.9986 -78.1903 20° North 434 499 27,000 -240 Descending Washington Center
02:27PM 36.1122 -78.1400 20° North 434 499 27,000 -180 Level Washington Center
02:28PM 36.2261 -78.0869 21° North 434 499 26,700 -480 Descending Washington Center
02:29PM 36.3397 -78.0364 20° North 429 494 26,100 -600 Descending Washington Center
02:30PM 36.4475 -77.9728 25° Northeast 429 494 25,500 -600 Descending Washington Center
02:31PM 36.5572 -77.9089 25° Northeast 429 494 25,000 -360 Descending Washington Center
02:32PM 36.6669 -77.8422 26° Northeast 429 494 24,900 -360 Descending Washington Center
02:33PM 36.7747 -77.7728 27° Northeast 429 494 24,300 -660 Descending Washington Center
02:34PM 36.8844 -77.7056 26° Northeast 429 494 23,600 -780 Descending Washington Center
02:35PM 36.9919 -77.6383 27° Northeast 429 494 22,800 -780 Descending Washington Center
02:36PM 37.0972 -77.5733 26° Northeast 424 488 22,100 -420 Descending Washington Center
02:37PM 37.2028 -77.5083 26° Northeast 424 488 22,000 -60 Descending Washington Center
02:38PM 37.3081 -77.4431 26° Northeast 419 482 22,000  Level Washington Center
02:39PM 37.4153 -77.3750 27° Northeast 419 482 22,000  Level Washington Center
02:40PM 37.5225 -77.3200 22° Northeast 419 482 22,000  Level Washington Center
02:41PM 37.6378 -77.2939 10° North 419 482 22,000  Level Washington Center
02:42PM 37.7506 -77.2700 10° North 414 476 22,000 -660 Level Washington Center
02:43PM 37.8528 -77.2697 360° North 393 452 20,800 -1,380 Descending Washington Center
02:44PM 37.9508 -77.2772 357° North 364 419 19,300 -2,520 Descending Washington Center
02:45PM 38.0592 -77.2875 356° North 353 406 15,800 -3,120 Descending Washington Center
02:46PM 38.1547 -77.2975 355° North 348 400 13,000 -2,460 Descending Washington Center
02:47PM 38.2422 -77.3206 348° North 341 392 11,000 -1,080 Descending Washington Center
02:48PM 38.2950 -77.4039 309° West 298 343 10,900  Descending Washington Center
02:49PM 38.3547 -77.4664 321° Northwest 293 337 11,000  Climbing Washington Center
02:50PM 38.4222 -77.4097 33° Northeast 235 270 11,000 -60 Level Washington Center
02:51PM 38.4817 -77.3342 45° Northeast 256 295 10,900 -360 Descending Washington Center
02:52PM 38.5369 -77.2611 46° Northeast 279 321 10,400 -960 Descending Washington Center
02:53PM 38.5964 -77.1881 44° Northeast 286 329 9,100 -1,080 Descending Washington Center
02:53PM 38.6500 -77.1333 39° Northeast 290 334 8,600 -1,200 Descending Potomac TRACON
02:54PM 38.7000 -77.0667 46° Northeast 293 337 7,100 -840 Descending Potomac TRACON
02:55PM 38.7833 -77.0833 351° North 287 330 7,000 -600 Descending Potomac TRACON
02:56PM 38.8333 -77.1333 322° Northwest 247 284 6,000 -1,020 Descending Potomac TRACON
02:57PM 38.8833 -77.1833 322° Northwest 233 268 5,000 -1,140 Descending Potomac TRACON
02:58PM 38.9333 -77.2333 322° Northwest 231 266 3,800 -1,020 Descending Potomac TRACON
02:59PM 38.9667 -77.1833 49° Northeast 189 217 3,000 -840 Descending Potomac TRACON